sensor_id;sensor_type;location;lat;lon;timestamp;pressure;altitude;pressure_sealevel;temperature;humidity
76404;BME280;65232;48.358;2.122;2023-07-31T00:00:03;100912.13;;;17.52;82.79
76404;BME280;65232;48.358;2.122;2023-07-31T00:00:30;100911.66;;;17.56;83.21
76404;BME280;65232;48.358;2.122;2023-07-31T00:00:56;100905.72;;;17.53;83.04
76404;BME280;65232;48.358;2.122;2023-07-31T00:01:21;100908.28;;;17.62;83.06
76404;BME280;65232;48.358;2.122;2023-07-31T00:01:47;100901.66;;;17.57;83.15
76404;BME280;65232;48.358;2.122;2023-07-31T00:02:12;100909.78;;;17.49;83.81
76404;BME280;65232;48.358;2.122;2023-07-31T00:02:38;100910.28;;;17.52;83.34
76404;BME280;65232;48.358;2.122;2023-07-31T00:03:03;100909.78;;;17.49;83.48
76404;BME280;65232;48.358;2.122;2023-07-31T00:03:29;100913.19;;;17.51;83.03
76404;BME280;65232;48.358;2.122;2023-07-31T00:03:54;100906.72;;;17.52;83.63
76404;BME280;65232;48.358;2.122;2023-07-31T00:04:20;100906.22;;;17.56;82.88
76404;BME280;65232;48.358;2.122;2023-07-31T00:04:45;100914.69;;;17.53;83.11
76404;BME280;65232;48.358;2.122;2023-07-31T00:05:11;100912.00;;;17.45;83.68
76404;BME280;65232;48.358;2.122;2023-07-31T00:05:36;100912.16;;;17.36;84.43
76404;BME280;65232;48.358;2.122;2023-07-31T00:06:02;100911.16;;;17.45;84.25
76404;BME280;65232;48.358;2.122;2023-07-31T00:06:27;100910.13;;;17.46;84.19
76404;BME280;65232;48.358;2.122;2023-07-31T00:06:53;100898.13;;;17.48;83.77
76404;BME280;65232;48.358;2.122;2023-07-31T00:07:18;100908.75;;;17.42;83.65
76404;BME280;65232;48.358;2.122;2023-07-31T00:07:44;100907.75;;;17.35;84.42
76404;BME280;65232;48.358;2.122;2023-07-31T00:08:09;100905.06;;;17.35;84.41
76404;BME280;65232;48.358;2.122;2023-07-31T00:08:35;100902.84;;;17.38;84.05
76404;BME280;65232;48.358;2.122;2023-07-31T00:09:00;100906.25;;;17.32;83.69
76404;BME280;65232;48.358;2.122;2023-07-31T00:09:26;100901.84;;;17.31;84.20
76404;BME280;65232;48.358;2.122;2023-07-31T00:09:51;100901.34;;;17.36;84.11
76404;BME280;65232;48.358;2.122;2023-07-31T00:10:18;100905.22;;;17.41;84.38
76404;BME280;65232;48.358;2.122;2023-07-31T00:10:44;100897.44;;;17.46;84.45
76404;BME280;65232;48.358;2.122;2023-07-31T00:11:09;100898.97;;;17.49;83.61
76404;BME280;65232;48.358;2.122;2023-07-31T00:11:35;100899.31;;;17.46;83.30
76404;BME280;65232;48.358;2.122;2023-07-31T00:12:00;100900.84;;;17.48;83.24
76404;BME280;65232;48.358;2.122;2023-07-31T00:12:26;100899.13;;;17.55;83.38
76404;BME280;65232;48.358;2.122;2023-07-31T00:12:51;100892.34;;;17.51;83.50
76404;BME280;65232;48.358;2.122;2023-07-31T00:13:17;100898.44;;;17.53;83.28
76404;BME280;65232;48.358;2.122;2023-07-31T00:13:42;100896.09;;;17.58;83.43
76404;BME280;65232;48.358;2.122;2023-07-31T00:14:08;100895.59;;;17.63;83.13
76404;BME280;65232;48.358;2.122;2023-07-31T00:14:33;100894.91;;;17.61;82.88
76404;BME280;65232;48.358;2.122;2023-07-31T00:14:59;100895.25;;;17.66;82.66
76404;BME280;65232;48.358;2.122;2023-07-31T00:15:24;100898.47;;;17.61;82.34
76404;BME280;65232;48.358;2.122;2023-07-31T00:15:50;100895.59;;;17.63;82.00
76404;BME280;65232;48.358;2.122;2023-07-31T00:16:15;100897.94;;;17.58;82.02
76404;BME280;65232;48.358;2.122;2023-07-31T00:16:41;100898.47;;;17.61;82.34
76404;BME280;65232;48.358;2.122;2023-07-31T00:17:06;100894.91;;;17.61;82.16
76404;BME280;65232;48.358;2.122;2023-07-31T00:17:32;100898.28;;;17.63;82.14
76404;BME280;65232;48.358;2.122;2023-07-31T00:17:57;100896.47;;;17.64;81.67
76404;BME280;65232;48.358;2.122;2023-07-31T00:18:23;100901.00;;;17.63;81.38
76404;BME280;65232;48.358;2.122;2023-07-31T00:18:48;100892.38;;;17.68;81.62
76404;BME280;65232;48.358;2.122;2023-07-31T00:19:14;100900.00;;;17.72;81.26
76404;BME280;65232;48.358;2.122;2023-07-31T00:19:39;100894.06;;;17.77;81.44
76404;BME280;65232;48.358;2.122;2023-07-31T00:20:05;100893.56;;;17.73;81.08
76404;BME280;65232;48.358;2.122;2023-07-31T00:20:31;100898.81;;;17.75;81.04
76404;BME280;65232;48.358;2.122;2023-07-31T00:20:56;100889.16;;;17.72;80.63
76404;BME280;65232;48.358;2.122;2023-07-31T00:21:22;100887.97;;;17.67;80.22
76404;BME280;65232;48.358;2.122;2023-07-31T00:21:47;100893.22;;;17.68;80.93
76404;BME280;65232;48.358;2.122;2023-07-31T00:22:13;100889.84;;;17.66;81.41
76404;BME280;65232;48.358;2.122;2023-07-31T00:22:38;100887.31;;;17.65;81.64
76404;BME280;65232;48.358;2.122;2023-07-31T00:23:04;100885.63;;;17.64;82.17
76404;BME280;65232;48.358;2.122;2023-07-31T00:23:29;100883.41;;;17.67;81.70
76404;BME280;65232;48.358;2.122;2023-07-31T00:23:55;100889.50;;;17.69;81.58
76404;BME280;65232;48.358;2.122;2023-07-31T00:24:20;100891.03;;;17.72;82.06
76404;BME280;65232;48.358;2.122;2023-07-31T00:24:46;100885.78;;;17.70;82.05
76404;BME280;65232;48.358;2.122;2023-07-31T00:25:11;100891.91;;;17.64;82.91
76404;BME280;65232;48.358;2.122;2023-07-31T00:25:37;100890.69;;;17.67;82.61
76404;BME280;65232;48.358;2.122;2023-07-31T00:26:02;100886.13;;;17.67;81.63
76404;BME280;65232;48.358;2.122;2023-07-31T00:26:28;100900.84;;;17.73;81.43
76404;BME280;65232;48.358;2.122;2023-07-31T00:26:53;100889.16;;;17.72;81.74
76404;BME280;65232;48.358;2.122;2023-07-31T00:27:19;100891.34;;;17.69;81.86
76404;BME280;65232;48.358;2.122;2023-07-31T00:27:44;100896.25;;;17.81;81.31
76404;BME280;65232;48.358;2.122;2023-07-31T00:28:11;100896.59;;;17.86;81.37
76404;BME280;65232;48.358;2.122;2023-07-31T00:28:37;100892.53;;;17.82;81.89
76404;BME280;65232;48.358;2.122;2023-07-31T00:29:03;100892.03;;;17.79;82.10
76404;BME280;65232;48.358;2.122;2023-07-31T00:29:29;100891.19;;;17.78;82.27
76404;BME280;65232;48.358;2.122;2023-07-31T00:29:57;100891.38;;;17.77;81.79
76404;BME280;65232;48.358;2.122;2023-07-31T00:30:22;100889.34;;;17.79;81.51
76404;BME280;65232;48.358;2.122;2023-07-31T00:30:50;100893.75;;;17.80;81.21
76404;BME280;65232;48.358;2.122;2023-07-31T00:31:15;100897.78;;;17.76;81.61
76404;BME280;65232;48.358;2.122;2023-07-31T00:31:41;100899.16;;;17.72;82.15
76404;BME280;65232;48.358;2.122;2023-07-31T00:32:07;100896.78;;;17.69;82.49
76404;BME280;65232;48.358;2.122;2023-07-31T00:32:32;100901.84;;;17.72;82.27
76404;BME280;65232;48.358;2.122;2023-07-31T00:32:59;100901.50;;;17.67;82.02
76404;BME280;65232;48.358;2.122;2023-07-31T00:33:24;100889.84;;;17.66;81.75
76404;BME280;65232;48.358;2.122;2023-07-31T00:33:50;100889.66;;;17.68;81.76
76404;BME280;65232;48.358;2.122;2023-07-31T00:34:15;100896.28;;;17.73;81.75
76404;BME280;65232;48.358;2.122;2023-07-31T00:34:40;100894.56;;;17.72;81.74
76404;BME280;65232;48.358;2.122;2023-07-31T00:35:06;100891.72;;;17.66;82.33
76404;BME280;65232;48.358;2.122;2023-07-31T00:35:31;100888.19;;;17.65;82.43
76404;BME280;65232;48.358;2.122;2023-07-31T00:35:58;100894.75;;;17.71;82.50
76404;BME280;65232;48.358;2.122;2023-07-31T00:36:25;100890.53;;;17.76;81.87
76404;BME280;65232;48.358;2.122;2023-07-31T00:36:50;100889.34;;;17.79;81.46
76404;BME280;65232;48.358;2.122;2023-07-31T00:37:16;100885.09;;;17.76;81.30
76404;BME280;65232;48.358;2.122;2023-07-31T00:37:41;100890.69;;;17.75;82.42
76404;BME280;65232;48.358;2.122;2023-07-31T00:38:07;100888.81;;;17.83;81.60
76404;BME280;65232;48.358;2.122;2023-07-31T00:38:32;100883.38;;;17.83;81.71
76404;BME280;65232;48.358;2.122;2023-07-31T00:38:58;100880.69;;;17.83;80.84
76404;BME280;65232;48.358;2.122;2023-07-31T00:39:25;100883.56;;;17.82;79.75
76404;BME280;65232;48.358;2.122;2023-07-31T00:39:51;100893.53;;;17.81;80.39
76404;BME280;65232;48.358;2.122;2023-07-31T00:40:16;100885.94;;;17.85;80.19
76404;BME280;65232;48.358;2.122;2023-07-31T00:40:42;100894.91;;;17.85;79.88
76404;BME280;65232;48.358;2.122;2023-07-31T00:41:07;100885.06;;;17.92;79.08
76404;BME280;65232;48.358;2.122;2023-07-31T00:41:33;100889.31;;;17.87;79.21
76404;BME280;65232;48.358;2.122;2023-07-31T00:41:58;100895.22;;;17.82;79.56
76404;BME280;65232;48.358;2.122;2023-07-31T00:42:24;100891.69;;;17.82;79.83
76404;BME280;65232;48.358;2.122;2023-07-31T00:42:50;100894.38;;;17.82;80.37
76404;BME280;65232;48.358;2.122;2023-07-31T00:43:15;100896.06;;;17.83;80.82
76404;BME280;65232;48.358;2.122;2023-07-31T00:43:41;100889.81;;;17.82;81.03
76404;BME280;65232;48.358;2.122;2023-07-31T00:44:06;100892.91;;;17.79;80.74
76404;BME280;65232;48.358;2.122;2023-07-31T00:44:32;100886.25;;;17.82;81.20
76404;BME280;65232;48.358;2.122;2023-07-31T00:44:59;100887.94;;;17.83;81.23
76404;BME280;65232;48.358;2.122;2023-07-31T00:45:25;100890.84;;;17.81;80.88
76404;BME280;65232;48.358;2.122;2023-07-31T00:45:52;100888.81;;;17.75;80.65
76404;BME280;65232;48.358;2.122;2023-07-31T00:46:18;100890.19;;;17.79;79.88
76404;BME280;65232;48.358;2.122;2023-07-31T00:46:44;100884.78;;;17.79;79.33
76404;BME280;65232;48.358;2.122;2023-07-31T00:47:09;100885.78;;;17.78;80.21
76404;BME280;65232;48.358;2.122;2023-07-31T00:47:35;100881.88;;;17.81;80.67
76404;BME280;65232;48.358;2.122;2023-07-31T00:48:01;100886.63;;;17.79;80.94
76404;BME280;65232;48.358;2.122;2023-07-31T00:48:27;100884.25;;;17.76;81.17
76404;BME280;65232;48.358;2.122;2023-07-31T00:48:54;100888.31;;;17.80;80.78
76404;BME280;65232;48.358;2.122;2023-07-31T00:49:21;100890.34;;;17.78;80.98
76404;BME280;65232;48.358;2.122;2023-07-31T00:49:48;100885.94;;;17.77;80.58
76404;BME280;65232;48.358;2.122;2023-07-31T00:50:14;100893.06;;;17.78;80.26
76404;BME280;65232;48.358;2.122;2023-07-31T00:50:40;100888.66;;;17.77;81.11
76404;BME280;65232;48.358;2.122;2023-07-31T00:51:06;100891.69;;;17.82;80.58
76404;BME280;65232;48.358;2.122;2023-07-31T00:51:33;100890.53;;;17.76;80.93
76404;BME280;65232;48.358;2.122;2023-07-31T00:51:59;100882.22;;;17.78;81.09
76404;BME280;65232;48.358;2.122;2023-07-31T00:52:25;100892.03;;;17.79;80.35
76404;BME280;65232;48.358;2.122;2023-07-31T00:52:50;100884.94;;;17.78;79.78
76404;BME280;65232;48.358;2.122;2023-07-31T00:53:17;100884.91;;;17.86;79.95
76404;BME280;65232;48.358;2.122;2023-07-31T00:53:42;100886.94;;;17.84;80.26
76404;BME280;65232;48.358;2.122;2023-07-31T00:54:09;100884.91;;;17.86;80.33
76404;BME280;65232;48.358;2.122;2023-07-31T00:54:34;100874.25;;;17.84;79.59
76404;BME280;65232;48.358;2.122;2023-07-31T00:55:00;100882.38;;;17.84;79.47
76404;BME280;65232;48.358;2.122;2023-07-31T00:55:26;100876.09;;;17.84;78.84
76404;BME280;65232;48.358;2.122;2023-07-31T00:55:52;100883.22;;;17.85;79.22
76404;BME280;65232;48.358;2.122;2023-07-31T00:56:17;100885.41;;;17.81;78.90
76404;BME280;65232;48.358;2.122;2023-07-31T00:56:45;100877.28;;;17.81;78.52
76404;BME280;65232;48.358;2.122;2023-07-31T00:57:11;100883.72;;;17.88;78.66
76404;BME280;65232;48.358;2.122;2023-07-31T00:57:36;100881.84;;;17.97;77.92
76404;BME280;65232;48.358;2.122;2023-07-31T00:58:04;100885.22;;;18.07;77.29
76404;BME280;65232;48.358;2.122;2023-07-31T00:58:29;100891.47;;;18.08;77.26
76404;BME280;65232;48.358;2.122;2023-07-31T00:58:55;100876.41;;;18.05;77.39
76404;BME280;65232;48.358;2.122;2023-07-31T00:59:21;100882.34;;;18.01;77.97
76404;BME280;65232;48.358;2.122;2023-07-31T00:59:46;100876.41;;;18.05;77.59
76404;BME280;65232;48.358;2.122;2023-07-31T01:00:14;100872.50;;;18.08;77.05
76404;BME280;65232;48.358;2.122;2023-07-31T01:00:39;100867.22;;;18.14;76.87
76404;BME280;65232;48.358;2.122;2023-07-31T01:01:05;100872.34;;;18.09;76.50
76404;BME280;65232;48.358;2.122;2023-07-31T01:01:30;100874.38;;;18.07;77.00
76404;BME280;65232;48.358;2.122;2023-07-31T01:01:56;100862.53;;;18.08;76.73
76404;BME280;65232;48.358;2.122;2023-07-31T01:02:21;100868.97;;;18.07;76.34
76404;BME280;65232;48.358;2.122;2023-07-31T01:02:48;100864.00;;;18.11;76.28
76404;BME280;65232;48.358;2.122;2023-07-31T01:03:14;100866.72;;;18.11;75.82
76404;BME280;65232;48.358;2.122;2023-07-31T01:03:40;100860.78;;;18.15;75.26
76404;BME280;65232;48.358;2.122;2023-07-31T01:04:05;100866.38;;;18.14;75.81
76404;BME280;65232;48.358;2.122;2023-07-31T01:04:31;100868.63;;;18.10;76.27
76404;BME280;65232;48.358;2.122;2023-07-31T01:04:57;100861.50;;;18.09;76.88
76404;BME280;65232;48.358;2.122;2023-07-31T01:06:04;100866.09;;;18.09;76.69
76404;BME280;65232;48.358;2.122;2023-07-31T01:07:14;100866.03;;;18.17;75.96
76404;BME280;65232;48.358;2.122;2023-07-31T01:07:56;100865.81;;;18.26;75.02
76404;BME280;65232;48.358;2.122;2023-07-31T01:10:32;100865.53;;;18.21;76.33
76404;BME280;65232;48.358;2.122;2023-07-31T01:11:11;100875.34;;;18.22;76.54
76404;BME280;65232;48.358;2.122;2023-07-31T01:11:48;100872.13;;;18.19;76.65
76404;BME280;65232;48.358;2.122;2023-07-31T01:12:17;100874.84;;;18.19;76.74
76404;BME280;65232;48.358;2.122;2023-07-31T01:12:45;100874.34;;;18.15;76.63
76404;BME280;65232;48.358;2.122;2023-07-31T01:13:12;100878.41;;;18.19;76.61
76404;BME280;65232;48.358;2.122;2023-07-31T01:13:37;100875.31;;;18.30;76.06
76404;BME280;65232;48.358;2.122;2023-07-31T01:14:03;100870.91;;;18.29;75.55
76404;BME280;65232;48.358;2.122;2023-07-31T01:14:29;100872.75;;;18.29;75.60
76404;BME280;65232;48.358;2.122;2023-07-31T01:15:26;100869.03;;;18.30;76.42
76404;BME280;65232;48.358;2.122;2023-07-31T01:15:51;100867.34;;;18.29;76.35
76404;BME280;65232;48.358;2.122;2023-07-31T01:16:17;100868.69;;;18.33;75.91
76404;BME280;65232;48.358;2.122;2023-07-31T01:16:45;100858.19;;;18.30;76.41
76404;BME280;65232;48.358;2.122;2023-07-31T01:17:11;100855.31;;;18.31;75.47
76404;BME280;65232;48.358;2.122;2023-07-31T01:17:43;100862.75;;;18.38;75.59
76404;BME280;65232;48.358;2.122;2023-07-31T01:18:09;100867.69;;;18.34;75.81
76404;BME280;65232;48.358;2.122;2023-07-31T01:18:35;100858.03;;;18.31;76.91
76404;BME280;65232;48.358;2.122;2023-07-31T01:19:01;100858.88;;;18.32;76.07
76404;BME280;65232;48.358;2.122;2023-07-31T01:19:27;100856.34;;;18.30;76.31
76404;BME280;65232;48.358;2.122;2023-07-31T01:19:54;100863.28;;;18.33;76.55
76404;BME280;65232;48.358;2.122;2023-07-31T01:20:23;100866.03;;;18.25;76.53
76404;BME280;65232;48.358;2.122;2023-07-31T01:20:57;100862.09;;;18.27;76.29
76404;BME280;65232;48.358;2.122;2023-07-31T01:22:25;100867.50;;;18.36;76.02
76404;BME280;65232;48.358;2.122;2023-07-31T01:26:10;100860.34;;;18.43;75.30
76404;BME280;65232;48.358;2.122;2023-07-31T01:26:39;100853.72;;;18.45;75.63
76404;BME280;65232;48.358;2.122;2023-07-31T01:27:14;100853.88;;;18.52;74.95
76404;BME280;65232;48.358;2.122;2023-07-31T01:28:02;100854.88;;;18.59;74.74
76404;BME280;65232;48.358;2.122;2023-07-31T01:28:40;100852.59;;;18.71;73.64
76404;BME280;65232;48.358;2.122;2023-07-31T01:29:17;100857.66;;;18.74;73.40
76404;BME280;65232;48.358;2.122;2023-07-31T01:30:17;100853.81;;;18.68;73.70
76404;BME280;65232;48.358;2.122;2023-07-31T01:30:48;100864.16;;;18.64;73.85
76404;BME280;65232;48.358;2.122;2023-07-31T01:31:21;100866.38;;;18.61;73.63
76404;BME280;65232;48.358;2.122;2023-07-31T01:31:49;100861.13;;;18.59;73.90
76404;BME280;65232;48.358;2.122;2023-07-31T01:32:17;100857.22;;;18.62;74.14
76404;BME280;65232;48.358;2.122;2023-07-31T01:32:43;100857.41;;;18.60;73.90
76404;BME280;65232;48.358;2.122;2023-07-31T01:33:14;100858.56;;;18.58;74.30
76404;BME280;65232;48.358;2.122;2023-07-31T01:33:41;100855.56;;;18.53;74.05
76404;BME280;65232;48.358;2.122;2023-07-31T01:34:08;100857.59;;;18.51;74.15
76404;BME280;65232;48.358;2.122;2023-07-31T01:34:35;100853.69;;;18.53;74.21
76404;BME280;65232;48.358;2.122;2023-07-31T01:35:04;100856.59;;;18.52;74.38
76404;BME280;65232;48.358;2.122;2023-07-31T01:35:34;100845.25;;;18.48;74.83
76404;BME280;65232;48.358;2.122;2023-07-31T01:35:59;100851.69;;;18.47;74.67
76404;BME280;65232;48.358;2.122;2023-07-31T01:36:25;100854.91;;;18.51;74.65
76404;BME280;65232;48.358;2.122;2023-07-31T01:36:51;100854.75;;;18.44;75.44
76404;BME280;65232;48.358;2.122;2023-07-31T01:37:17;100860.16;;;18.44;74.82
76404;BME280;65232;48.358;2.122;2023-07-31T01:37:42;100853.72;;;18.45;74.30
76404;BME280;65232;48.358;2.122;2023-07-31T01:38:08;100856.25;;;18.47;74.25
76404;BME280;65232;48.358;2.122;2023-07-31T01:38:33;100856.09;;;18.48;74.63
76404;BME280;65232;48.358;2.122;2023-07-31T01:38:59;100849.81;;;18.48;74.32
76404;BME280;65232;48.358;2.122;2023-07-31T01:39:25;100852.88;;;18.45;74.77
76404;BME280;65232;48.358;2.122;2023-07-31T01:39:51;100847.13;;;18.48;74.47
76404;BME280;65232;48.358;2.122;2023-07-31T01:40:17;100848.97;;;18.47;74.25
76404;BME280;65232;48.358;2.122;2023-07-31T01:40:42;100848.47;;;18.44;74.46
76404;BME280;65232;48.358;2.122;2023-07-31T01:41:08;100846.44;;;18.46;74.28
76404;BME280;65232;48.358;2.122;2023-07-31T01:41:34;100847.78;;;18.50;74.52
76404;BME280;65232;48.358;2.122;2023-07-31T01:42:00;100853.72;;;18.45;74.45
76404;BME280;65232;48.358;2.122;2023-07-31T01:42:25;100853.91;;;18.44;74.59
76404;BME280;65232;48.358;2.122;2023-07-31T01:42:51;100854.41;;;18.47;74.15
76404;BME280;65232;48.358;2.122;2023-07-31T01:43:16;100852.72;;;18.46;74.48
76404;BME280;65232;48.358;2.122;2023-07-31T01:43:42;100852.72;;;18.46;75.03
76404;BME280;65232;48.358;2.122;2023-07-31T01:44:07;100848.97;;;18.47;75.35
76404;BME280;65232;48.358;2.122;2023-07-31T01:44:33;100856.25;;;18.47;75.68
76404;BME280;65232;48.358;2.122;2023-07-31T01:44:59;100862.34;;;18.49;75.22
76404;BME280;65232;48.358;2.122;2023-07-31T01:45:24;100857.09;;;18.47;74.82
76404;BME280;65232;48.358;2.122;2023-07-31T01:45:50;100857.06;;;18.55;74.76
76404;BME280;65232;48.358;2.122;2023-07-31T01:46:17;100861.66;;;18.55;74.46
76404;BME280;65232;48.358;2.122;2023-07-31T01:46:42;100856.75;;;18.50;74.76
76404;BME280;65232;48.358;2.122;2023-07-31T01:47:07;100859.66;;;18.49;75.47
76404;BME280;65232;48.358;2.122;2023-07-31T01:47:33;100860.00;;;18.46;75.50
76404;BME280;65232;48.358;2.122;2023-07-31T01:47:59;100853.91;;;18.44;75.15
76404;BME280;65232;48.358;2.122;2023-07-31T01:48:24;100859.03;;;18.39;74.97
76404;BME280;65232;48.358;2.122;2023-07-31T01:48:50;100852.59;;;18.40;74.99
76404;BME280;65232;48.358;2.122;2023-07-31T01:49:16;100852.75;;;18.38;75.39
76404;BME280;65232;48.358;2.122;2023-07-31T01:49:41;100853.41;;;18.40;75.34
76404;BME280;65232;48.358;2.122;2023-07-31T01:50:07;100855.41;;;18.46;75.18
76404;BME280;65232;48.358;2.122;2023-07-31T01:50:32;100853.22;;;18.42;75.31
76404;BME280;65232;48.358;2.122;2023-07-31T01:51:00;100850.34;;;18.43;75.17
76404;BME280;65232;48.358;2.122;2023-07-31T01:51:25;100850.34;;;18.43;75.24
76404;BME280;65232;48.358;2.122;2023-07-31T01:51:51;100849.16;;;18.46;74.55
76404;BME280;65232;48.358;2.122;2023-07-31T01:52:16;100844.75;;;18.45;74.82
76404;BME280;65232;48.358;2.122;2023-07-31T01:52:42;100844.47;;;18.40;75.46
76404;BME280;65232;48.358;2.122;2023-07-31T01:53:07;100850.50;;;18.42;75.30
76404;BME280;65232;48.358;2.122;2023-07-31T01:53:33;100849.88;;;18.40;75.13
76404;BME280;65232;48.358;2.122;2023-07-31T01:53:58;100841.91;;;18.38;75.71
76404;BME280;65232;48.358;2.122;2023-07-31T01:54:24;100842.75;;;18.39;76.39
76404;BME280;65232;48.358;2.122;2023-07-31T01:54:49;100843.78;;;18.38;75.99
76404;BME280;65232;48.358;2.122;2023-07-31T01:55:15;100846.00;;;18.34;76.03
76404;BME280;65232;48.358;2.122;2023-07-31T01:55:41;100847.69;;;18.35;76.51
76404;BME280;65232;48.358;2.122;2023-07-31T01:56:07;100840.25;;;18.29;76.32
76404;BME280;65232;48.358;2.122;2023-07-31T01:56:33;100836.84;;;18.35;76.40
76404;BME280;65232;48.358;2.122;2023-07-31T01:56:59;100840.41;;;18.36;75.90
76404;BME280;65232;48.358;2.122;2023-07-31T01:57:24;100836.66;;;18.37;75.83
76404;BME280;65232;48.358;2.122;2023-07-31T01:57:50;100839.03;;;18.40;75.95
76404;BME280;65232;48.358;2.122;2023-07-31T01:58:15;100845.78;;;18.44;75.74
76404;BME280;65232;48.358;2.122;2023-07-31T01:58:41;100836.97;;;18.42;75.80
76404;BME280;65232;48.358;2.122;2023-07-31T01:59:06;100830.69;;;18.41;75.49
76404;BME280;65232;48.358;2.122;2023-07-31T01:59:32;100832.78;;;18.39;75.50
76404;BME280;65232;48.358;2.122;2023-07-31T01:59:58;100838.66;;;18.43;75.35
76404;BME280;65232;48.358;2.122;2023-07-31T02:00:24;100840.34;;;18.44;75.39
76404;BME280;65232;48.358;2.122;2023-07-31T02:00:49;100840.22;;;18.37;76.08
76404;BME280;65232;48.358;2.122;2023-07-31T02:01:15;100843.78;;;18.38;75.90
76404;BME280;65232;48.358;2.122;2023-07-31T02:01:40;100838.47;;;18.44;76.20
76404;BME280;65232;48.358;2.122;2023-07-31T02:02:05;100836.97;;;18.42;76.08
76404;BME280;65232;48.358;2.122;2023-07-31T02:02:31;100842.22;;;18.43;75.88
76404;BME280;65232;48.358;2.122;2023-07-31T02:02:57;100843.97;;;18.36;76.25
76404;BME280;65232;48.358;2.122;2023-07-31T02:03:23;100838.19;;;18.39;76.04
76404;BME280;65232;48.358;2.122;2023-07-31T02:03:50;100835.47;;;18.39;75.76
76404;BME280;65232;48.358;2.122;2023-07-31T02:04:16;100839.84;;;18.40;75.85
76404;BME280;65232;48.358;2.122;2023-07-31T02:04:42;100844.47;;;18.40;75.70
76404;BME280;65232;48.358;2.122;2023-07-31T02:05:08;100837.03;;;18.33;76.01
76404;BME280;65232;48.358;2.122;2023-07-31T02:05:33;100843.78;;;18.38;75.68
76404;BME280;65232;48.358;2.122;2023-07-31T02:06:00;100834.25;;;18.42;75.42
76404;BME280;65232;48.358;2.122;2023-07-31T02:06:25;100840.91;;;18.39;74.96
76404;BME280;65232;48.358;2.122;2023-07-31T02:06:51;100844.97;;;18.35;74.68
76404;BME280;65232;48.358;2.122;2023-07-31T02:07:16;100838.53;;;18.36;74.87
76404;BME280;65232;48.358;2.122;2023-07-31T02:07:42;100841.25;;;18.36;75.10
76404;BME280;65232;48.358;2.122;2023-07-31T02:08:08;100844.06;;;18.43;74.85
76404;BME280;65232;48.358;2.122;2023-07-31T02:08:33;100839.50;;;18.43;74.48
76404;BME280;65232;48.358;2.122;2023-07-31T02:08:59;100839.81;;;18.48;74.50
76404;BME280;65232;48.358;2.122;2023-07-31T02:09:24;100844.56;;;18.46;74.41
76404;BME280;65232;48.358;2.122;2023-07-31T02:09:50;100843.38;;;18.49;74.31
76404;BME280;65232;48.358;2.122;2023-07-31T02:10:15;100838.13;;;18.47;73.91
76404;BME280;65232;48.358;2.122;2023-07-31T02:10:41;100838.13;;;18.47;73.98
76404;BME280;65232;48.358;2.122;2023-07-31T02:11:06;100832.38;;;18.42;74.71
76404;BME280;65232;48.358;2.122;2023-07-31T02:11:32;100836.97;;;18.42;75.15
76404;BME280;65232;48.358;2.122;2023-07-31T02:11:57;100837.53;;;18.37;75.45
76404;BME280;65232;48.358;2.122;2023-07-31T02:12:23;100837.19;;;18.32;74.92
76404;BME280;65232;48.358;2.122;2023-07-31T02:12:49;100830.84;;;18.48;74.37
76404;BME280;65232;48.358;2.122;2023-07-31T02:13:14;100838.63;;;18.51;75.06
76404;BME280;65232;48.358;2.122;2023-07-31T02:13:40;100839.47;;;18.51;75.09
76404;BME280;65232;48.358;2.122;2023-07-31T02:14:05;100846.75;;;18.51;74.40
76404;BME280;65232;48.358;2.122;2023-07-31T02:14:31;100833.72;;;18.54;74.21
76404;BME280;65232;48.358;2.122;2023-07-31T02:14:56;100841.34;;;18.51;74.12
76404;BME280;65232;48.358;2.122;2023-07-31T02:15:22;100840.31;;;18.52;74.16
76404;BME280;65232;48.358;2.122;2023-07-31T02:15:47;100839.66;;;18.50;74.07
76404;BME280;65232;48.358;2.122;2023-07-31T02:16:13;100832.72;;;18.47;74.44
76404;BME280;65232;48.358;2.122;2023-07-31T02:16:38;100835.47;;;18.39;74.92
76404;BME280;65232;48.358;2.122;2023-07-31T02:17:05;100835.28;;;18.41;74.87
76404;BME280;65232;48.358;2.122;2023-07-31T02:17:30;100831.94;;;18.39;74.91
76404;BME280;65232;48.358;2.122;2023-07-31T02:17:56;100831.44;;;18.35;75.07
76404;BME280;65232;48.358;2.122;2023-07-31T02:18:21;100829.84;;;18.41;74.81
76404;BME280;65232;48.358;2.122;2023-07-31T02:18:48;100838.53;;;18.36;74.68
76404;BME280;65232;48.358;2.122;2023-07-31T02:19:13;100835.84;;;18.36;74.49
76404;BME280;65232;48.358;2.122;2023-07-31T02:19:39;100832.44;;;18.34;74.38
76404;BME280;65232;48.358;2.122;2023-07-31T02:20:05;100827.19;;;18.32;74.75
76404;BME280;65232;48.358;2.122;2023-07-31T02:20:34;100830.44;;;18.28;75.61
76404;BME280;65232;48.358;2.122;2023-07-31T02:21:01;100833.06;;;18.44;74.52
76404;BME280;65232;48.358;2.122;2023-07-31T02:21:26;100828.50;;;18.45;74.64
76404;BME280;65232;48.358;2.122;2023-07-31T02:21:52;100836.94;;;18.50;74.30
76404;BME280;65232;48.358;2.122;2023-07-31T02:22:17;100829.16;;;18.47;73.93
76404;BME280;65232;48.358;2.122;2023-07-31T02:22:43;100826.69;;;18.37;74.80
76404;BME280;65232;48.358;2.122;2023-07-31T02:23:08;100832.13;;;18.29;75.09
76404;BME280;65232;48.358;2.122;2023-07-31T02:23:34;100829.41;;;18.29;74.85
76404;BME280;65232;48.358;2.122;2023-07-31T02:23:59;100830.44;;;18.28;75.09
76404;BME280;65232;48.358;2.122;2023-07-31T02:24:25;100828.38;;;18.30;74.81
76404;BME280;65232;48.358;2.122;2023-07-31T02:24:51;100828.75;;;18.27;74.65
76404;BME280;65232;48.358;2.122;2023-07-31T02:25:16;100833.69;;;18.23;74.98
76404;BME280;65232;48.358;2.122;2023-07-31T02:25:42;100830.97;;;18.23;75.13
76404;BME280;65232;48.358;2.122;2023-07-31T02:26:08;100833.69;;;18.23;74.92